MV Moseldijk — PBWK — position and weather

sailwx.info

Track history (hours):
 
Tides and Currents Weather Stations Pressure Air Temp Water Temp Dewpoint Dewpoint Depression Visibility Wind Speed Wind Dir Waves Ship Positions

MV Moseldijk

Last reported at 2014-Jul-28 05:32 UTC. Time now 2014-Jul-28 06:15 UTC.
Position N 56°01' E 012°43'.

Length 90 m; draft 6.5 m.

Type: Cargo ship. MMSI: 246644000.

Date/timePositionNaut miles runAvg speedWind from/ knotsBaromVisibWave heightAir tempDewpointWater temp
2014-Jul-28 05:32N 56°01' E 012°43'0 0.0
2014-Jul-28 04:23N 56°01' E 012°43'0 0.0
2014-Jul-28 03:26N 56°01' E 012°43'0 0.0
2014-Jul-28 02:33N 56°01' E 012°43'2 1.7
2014-Jul-28 01:33N 56°01' E 012°40'10 9.9
2014-Jul-28 00:33N 56°08' E 012°28'1111.0
2014-Jul-27 23:33N 56°15' E 012°12'1210.2
2014-Jul-27 22:21N 56°25' E 012°01'910.5
2014-Jul-27 21:33N 56°34' E 011°57'1010.5
2014-Jul-27 20:33N 56°44' E 011°53'1111.0
2014-Jul-27 19:33N 56°54' E 011°47'1111.1
2014-Jul-27 18:33N 57°05' E 011°40'1111.2
2014-Jul-27 17:33N 57°15' E 011°33'1010.4
2014-Jul-27 16:33N 57°25' E 011°26'10 9.7
2014-Jul-27 15:33N 57°32' E 011°14'1010.3
2014-Jul-27 14:33N 57°39' E 011°01'1010.1
2014-Jul-27 13:33N 57°46' E 010°47'10 9.8
2014-Jul-27 12:33N 57°46' E 010°28'1110.7
2014-Jul-27 11:30N 57°43' E 010°08'23410.1
2014-Jul-26 12:24N 54°42' E 005°41'5110.3
2014-Jul-26 07:27N 54°00' E 004°51'3110.7
2014-Jul-26 04:31N 53°29' E 004°44'1211.6
2014-Jul-26 03:30N 53°18' E 004°36'1311.6
2014-Jul-26 02:23N 53°06' E 004°27'93 9.5
2014-Jul-25 16:33N 51°55' E 002°49'1110.9
2014-Jul-25 15:33N 51°46' E 002°38'1111.2
2014-Jul-25 14:33N 51°37' E 002°27'1211.7
2014-Jul-25 13:34N 51°28' E 002°15'1211.8
2014-Jul-25 12:33N 51°17' E 002°07'1212.1
2014-Jul-25 11:33N 51°09' E 001°53'1212.3
2014-Jul-25 10:33N 51°01' E 001°38'4210.5
2014-Jul-25 06:33N 50°29' E 000°55'1010.4
2014-Jul-25 05:33N 50°27' E 000°39'10 9.8
2014-Jul-25 04:33N 50°24' E 000°24'54 9.1
2014-Jul-24 22:33N 50°10' W 000°58'1110.4
2014-Jul-24 21:28N 50°06' W 001°15'1111.6
2014-Jul-24 20:33N 50°03' W 001°30'1312.8
2014-Jul-24 19:33N 50°00' W 001°49'1413.7
2014-Jul-24 18:33N 49°57' W 002°10'191 9.4
2014-Jul-23 22:11N 47°46' W 005°43'610.5
2014-Jul-23 21:34N 47°40' W 005°42'1010.3
2014-Jul-23 20:33N 47°30' W 005°43'4110.3
2014-Jul-23 16:34N 46°49' W 005°42'18410.2
2014-Jul-22 22:31N 43°44' W 005°40'1010.0
2014-Jul-22 21:33N 43°34' W 005°40'1 0.1
2014-Jul-22 01:33N 43°34' W 005°42'0 0.0
2014-Jul-21 23:27N 43°34' W 005°42'0 0.0
2014-Jul-21 13:33N 43°34' W 005°42'0 0.0
2014-Jul-21 07:30N 43°34' W 005°42'0 0.0
2014-Jul-21 06:26N 43°34' W 005°42'0 0.0
2014-Jul-21 05:33N 43°34' W 005°42'0 0.0
2014-Jul-20 23:22N 43°34' W 005°42'7 8.3
2014-Jul-20 22:33N 43°36' W 005°33'110 3.4
2014-Jul-19 14:31N 43°21' W 003°02'0 0.0
2014-Jul-19 13:31N 43°21' W 003°02'0 0.0
2014-Jul-19 12:31N 43°21' W 003°02'0 0.0
2014-Jul-19 11:28N 43°21' W 003°02'0 0.0
2014-Jul-19 10:31N 43°21' W 003°02'0 0.0
2014-Jul-19 09:31N 43°21' W 003°02'0 0.0
2014-Jul-19 08:31N 43°21' W 003°02'0 0.0
2014-Jul-19 07:31N 43°21' W 003°02'0 0.0
2014-Jul-19 06:31N 43°21' W 003°02'0 0.0
2014-Jul-19 05:31N 43°21' W 003°02'0 0.0
2014-Jul-19 04:31N 43°21' W 003°02'0 0.0
2014-Jul-19 03:31N 43°21' W 003°02'0 0.0
2014-Jul-19 02:31N 43°21' W 003°02'0 0.0
2014-Jul-19 01:31N 43°21' W 003°02'0 0.0
2014-Jul-19 00:31N 43°21' W 003°02'0 0.0
2014-Jul-18 23:31N 43°21' W 003°02'0 0.0
2014-Jul-18 22:31N 43°21' W 003°02'0 0.0
2014-Jul-18 21:31N 43°21' W 003°02'0 0.0
2014-Jul-18 20:31N 43°21' W 003°02'0 0.0
2014-Jul-18 19:28N 43°21' W 003°02'0 0.0
2014-Jul-18 18:31N 43°21' W 003°02'0 0.0
2014-Jul-18 17:31N 43°21' W 003°02'0 0.0
2014-Jul-18 16:31N 43°21' W 003°02'0 0.0
2014-Jul-18 15:31N 43°21' W 003°02'0 0.0
2014-Jul-18 14:31N 43°21' W 003°02'0 0.0
2014-Jul-18 13:31N 43°21' W 003°02'0 0.0
2014-Jul-18 12:31N 43°21' W 003°02'0 0.0
2014-Jul-18 11:31N 43°21' W 003°02'0 0.0
2014-Jul-18 10:31N 43°21' W 003°02'0 0.0
2014-Jul-18 09:31N 43°21' W 003°02'0 0.0
2014-Jul-18 08:28N 43°21' W 003°02'0 0.0
2014-Jul-18 07:31N 43°21' W 003°02'0 0.0
2014-Jul-18 06:31N 43°21' W 003°02'  
Track history (hours):
 
Tides and Currents Weather Stations Pressure Air Temp Water Temp Dewpoint Dewpoint Depression Visibility Wind Speed Wind Dir Waves Ship Positions

MV Moseldijk

Last reported at 2014-Jul-28 05:32 UTC. Time now 2014-Jul-28 06:15 UTC.
Position N 56°01' E 012°43'.

Length 90 m; draft 6.5 m.

Type: Cargo ship. MMSI: 246644000.

Date/timePositionNaut miles runAvg speedWind from/ knotsBaromVisibWave heightAir tempDewpointWater temp
2014-Jul-28 05:32N 56°01' E 012°43'0 0.0
2014-Jul-28 04:23N 56°01' E 012°43'0 0.0
2014-Jul-28 03:26N 56°01' E 012°43'0 0.0
2014-Jul-28 02:33N 56°01' E 012°43'2 1.7
2014-Jul-28 01:33N 56°01' E 012°40'10 9.9
2014-Jul-28 00:33N 56°08' E 012°28'1111.0
2014-Jul-27 23:33N 56°15' E 012°12'1210.2
2014-Jul-27 22:21N 56°25' E 012°01'910.5
2014-Jul-27 21:33N 56°34' E 011°57'1010.5
2014-Jul-27 20:33N 56°44' E 011°53'1111.0
2014-Jul-27 19:33N 56°54' E 011°47'1111.1
2014-Jul-27 18:33N 57°05' E 011°40'1111.2
2014-Jul-27 17:33N 57°15' E 011°33'1010.4
2014-Jul-27 16:33N 57°25' E 011°26'10 9.7
2014-Jul-27 15:33N 57°32' E 011°14'1010.3
2014-Jul-27 14:33N 57°39' E 011°01'1010.1
2014-Jul-27 13:33N 57°46' E 010°47'10 9.8
2014-Jul-27 12:33N 57°46' E 010°28'1110.7
2014-Jul-27 11:30N 57°43' E 010°08'23410.1
2014-Jul-26 12:24N 54°42' E 005°41'5110.3
2014-Jul-26 07:27N 54°00' E 004°51'3110.7
2014-Jul-26 04:31N 53°29' E 004°44'1211.6
2014-Jul-26 03:30N 53°18' E 004°36'1311.6
2014-Jul-26 02:23N 53°06' E 004°27'93 9.5
2014-Jul-25 16:33N 51°55' E 002°49'1110.9
2014-Jul-25 15:33N 51°46' E 002°38'1111.2
2014-Jul-25 14:33N 51°37' E 002°27'1211.7
2014-Jul-25 13:34N 51°28' E 002°15'1211.8
2014-Jul-25 12:33N 51°17' E 002°07'1212.1
2014-Jul-25 11:33N 51°09' E 001°53'1212.3
2014-Jul-25 10:33N 51°01' E 001°38'4210.5
2014-Jul-25 06:33N 50°29' E 000°55'1010.4
2014-Jul-25 05:33N 50°27' E 000°39'10 9.8
2014-Jul-25 04:33N 50°24' E 000°24'54 9.1
2014-Jul-24 22:33N 50°10' W 000°58'1110.4
2014-Jul-24 21:28N 50°06' W 001°15'1111.6
2014-Jul-24 20:33N 50°03' W 001°30'1312.8
2014-Jul-24 19:33N 50°00' W 001°49'1413.7
2014-Jul-24 18:33N 49°57' W 002°10'191 9.4
2014-Jul-23 22:11N 47°46' W 005°43'610.5
2014-Jul-23 21:34N 47°40' W 005°42'1010.3
2014-Jul-23 20:33N 47°30' W 005°43'4110.3
2014-Jul-23 16:34N 46°49' W 005°42'18410.2
2014-Jul-22 22:31N 43°44' W 005°40'1010.0
2014-Jul-22 21:33N 43°34' W 005°40'1 0.1
2014-Jul-22 01:33N 43°34' W 005°42'0 0.0
2014-Jul-21 23:27N 43°34' W 005°42'0 0.0
2014-Jul-21 13:33N 43°34' W 005°42'0 0.0
2014-Jul-21 07:30N 43°34' W 005°42'0 0.0
2014-Jul-21 06:26N 43°34' W 005°42'0 0.0
2014-Jul-21 05:33N 43°34' W 005°42'0 0.0
2014-Jul-20 23:22N 43°34' W 005°42'7 8.3
2014-Jul-20 22:33N 43°36' W 005°33'110 3.4
2014-Jul-19 14:31N 43°21' W 003°02'0 0.0
2014-Jul-19 13:31N 43°21' W 003°02'0 0.0
2014-Jul-19 12:31N 43°21' W 003°02'0 0.0
2014-Jul-19 11:28N 43°21' W 003°02'0 0.0
2014-Jul-19 10:31N 43°21' W 003°02'0 0.0
2014-Jul-19 09:31N 43°21' W 003°02'0 0.0
2014-Jul-19 08:31N 43°21' W 003°02'0 0.0
2014-Jul-19 07:31N 43°21' W 003°02'0 0.0
2014-Jul-19 06:31N 43°21' W 003°02'0 0.0
2014-Jul-19 05:31N 43°21' W 003°02'0 0.0
2014-Jul-19 04:31N 43°21' W 003°02'0 0.0
2014-Jul-19 03:31N 43°21' W 003°02'0 0.0
2014-Jul-19 02:31N 43°21' W 003°02'0 0.0
2014-Jul-19 01:31N 43°21' W 003°02'0 0.0
2014-Jul-19 00:31N 43°21' W 003°02'0 0.0
2014-Jul-18 23:31N 43°21' W 003°02'0 0.0
2014-Jul-18 22:31N 43°21' W 003°02'0 0.0
2014-Jul-18 21:31N 43°21' W 003°02'0 0.0
2014-Jul-18 20:31N 43°21' W 003°02'0 0.0
2014-Jul-18 19:28N 43°21' W 003°02'0 0.0
2014-Jul-18 18:31N 43°21' W 003°02'0 0.0
2014-Jul-18 17:31N 43°21' W 003°02'0 0.0
2014-Jul-18 16:31N 43°21' W 003°02'0 0.0
2014-Jul-18 15:31N 43°21' W 003°02'0 0.0
2014-Jul-18 14:31N 43°21' W 003°02'0 0.0
2014-Jul-18 13:31N 43°21' W 003°02'0 0.0
2014-Jul-18 12:31N 43°21' W 003°02'0 0.0
2014-Jul-18 11:31N 43°21' W 003°02'0 0.0
2014-Jul-18 10:31N 43°21' W 003°02'0 0.0
2014-Jul-18 09:31N 43°21' W 003°02'0 0.0
2014-Jul-18 08:28N 43°21' W 003°02'0 0.0
2014-Jul-18 07:31N 43°21' W 003°02'0 0.0
2014-Jul-18 06:31N 43°21' W 003°02'  

Dump ship's entire track history